Time;durP1;ratioP1;P1;durP2;ratioP2;P2;SDS_P1;SDS_P2;PMS_P1;PMS_P2;Temp;Humidity;BMP_temperature;BMP_pressure;BME280_temperature;BME280_humidity;BME280_pressure;Samples;Min_cycle;Max_cycle;Signal;HPM_P1;HPM_P2
2022/03/16 00:00:22;;;;;;;35.60;21.83;;;3.40;99.90;;;;;;5175718;27;20278;-52
2022/03/16 00:02:51;;;;;;;31.93;22.20;;;3.30;99.90;;;;;;5174998;27;20253;-51
2022/03/16 00:05:19;;;;;;;34.17;22.77;;;3.30;99.90;;;;;;5175766;27;20202;-52
2022/03/16 00:07:49;;;;;;;30.23;22.00;;;3.30;99.90;;;;;;5175883;27;20211;-51
2022/03/16 00:10:17;;;;;;;30.40;21.00;;;3.30;99.90;;;;;;5175834;27;20703;-51
2022/03/16 00:12:45;;;;;;;34.07;21.97;;;3.30;99.90;;;;;;5175365;27;20731;-51
2022/03/16 00:15:13;;;;;;;32.00;21.30;;;3.30;99.90;;;;;;5175564;27;20266;-51
2022/03/16 00:17:41;;;;;;;32.97;22.87;;;3.30;99.90;;;;;;5174418;27;20207;-52
2022/03/16 00:20:10;;;;;;;30.40;21.30;;;3.20;99.90;;;;;;5155085;27;20246;-51
2022/03/16 00:22:39;;;;;;;31.97;20.67;;;3.20;99.90;;;;;;5154330;27;20258;-51
2022/03/16 00:25:09;;;;;;;112.70;28.83;;;3.20;99.90;;;;;;5154883;27;20556;-52
2022/03/16 00:27:37;;;;;;;52.10;20.20;;;3.00;99.90;;;;;;5154529;27;20271;-51
2022/03/16 00:30:06;;;;;;;53.77;19.87;;;2.90;99.90;;;;;;5154665;27;20223;-51
2022/03/16 00:32:34;;;;;;;47.90;18.67;;;2.90;99.90;;;;;;5153855;27;20204;-51
2022/03/16 00:35:02;;;;;;;64.27;18.17;;;3.00;99.90;;;;;;5154259;27;20974;-51
2022/03/16 00:37:32;;;;;;;85.57;18.70;;;3.10;99.90;;;;;;5154447;27;20662;-51
2022/03/16 00:40:01;;;;;;;72.33;16.80;;;3.20;99.90;;;;;;5154411;27;20235;-50
2022/03/16 00:42:30;;;;;;;116.83;19.53;;;3.20;99.90;;;;;;5154142;27;20225;-51
2022/03/16 00:44:58;;;;;;;76.47;19.40;;;3.30;99.90;;;;;;5154057;27;20206;-51
2022/03/16 00:47:27;;;;;;;92.97;20.43;;;3.30;99.90;;;;;;5154098;27;20632;-50
2022/03/16 00:49:55;;;;;;;107.60;20.80;;;3.40;99.90;;;;;;5154338;27;20620;-51
2022/03/16 00:52:23;;;;;;;67.37;18.73;;;3.40;99.90;;;;;;5154142;27;20232;-51
2022/03/16 00:54:51;;;;;;;71.13;17.87;;;3.40;99.90;;;;;;5163439;27;20244;-51
2022/03/16 00:57:19;;;;;;;119.23;24.07;;;3.40;99.90;;;;;;5175111;27;20641;-51
2022/03/16 00:59:48;;;;;;;148.57;22.70;;;3.40;99.90;;;;;;5173963;27;20830;-52
2022/03/16 01:02:16;;;;;;;162.87;24.17;;;3.50;99.90;;;;;;5173334;27;20203;-51
2022/03/16 01:04:45;;;;;;;285.87;33.73;;;3.40;99.90;;;;;;5174009;27;20205;-51
2022/03/16 01:07:13;;;;;;;214.53;27.63;;;3.40;99.90;;;;;;5174797;27;20707;-51
2022/03/16 01:09:41;;;;;;;128.30;24.47;;;3.30;99.90;;;;;;5174471;27;20223;-51
2022/03/16 01:12:10;;;;;;;93.93;20.80;;;3.40;99.90;;;;;;5174195;27;20201;-51
2022/03/16 01:14:38;;;;;;;185.47;25.83;;;3.40;99.90;;;;;;5174550;27;20733;-52
2022/03/16 01:17:08;;;;;;;250.37;26.07;;;3.50;99.90;;;;;;5174555;27;20278;-52
2022/03/16 01:19:36;;;;;;;132.00;23.10;;;3.50;99.90;;;;;;5174674;27;20406;-52
2022/03/16 01:22:05;;;;;;;120.10;22.73;;;3.50;99.90;;;;;;5174223;27;20245;-51
2022/03/16 01:24:34;;;;;;;109.70;22.53;;;3.50;99.90;;;;;;5174262;27;20201;-51
2022/03/16 01:27:02;;;;;;;166.53;23.60;;;3.50;99.90;;;;;;5174547;27;20702;-50
2022/03/16 01:29:30;;;;;;;98.70;20.77;;;3.60;99.90;;;;;;5175280;27;20203;-50
2022/03/16 01:31:58;;;;;;;129.93;22.83;;;3.60;99.90;;;;;;5174397;27;20213;-52
2022/03/16 01:34:28;;;;;;;90.87;21.73;;;3.50;99.90;;;;;;5162632;27;20199;-52
2022/03/16 01:36:57;;;;;;;64.87;21.07;;;3.50;99.90;;;;;;5158082;27;20218;-52
2022/03/16 01:39:25;;;;;;;71.20;19.17;;;3.40;99.90;;;;;;5174354;27;20203;-52
2022/03/16 01:41:53;;;;;;;68.67;20.50;;;3.30;99.90;;;;;;5173710;27;20230;-52
2022/03/16 01:44:43;;;;;;;36.47;19.90;;;3.10;99.90;;;;;;5174161;27;20654;-52
2022/03/16 01:47:11;;;;;;;28.13;17.53;;;3.10;99.90;;;;;;5174320;27;20272;-52
2022/03/16 01:49:40;;;;;;;27.17;19.17;;;3.00;99.90;;;;;;5173602;27;20205;-52
2022/03/16 01:52:09;;;;;;;27.13;18.70;;;3.00;99.90;;;;;;5173386;27;20201;-52
2022/03/16 01:54:39;;;;;;;23.33;17.70;;;2.90;99.90;;;;;;5173702;27;20193;-52
2022/03/16 01:57:09;;;;;;;29.50;18.97;;;2.90;99.90;;;;;;5173861;27;20235;-51
2022/03/16 01:59:38;;;;;;;33.57;20.47;;;2.90;99.90;;;;;;5173295;27;20198;-51
2022/03/16 02:02:06;;;;;;;30.37;20.50;;;2.80;99.90;;;;;;5172019;27;20225;-51
2022/03/16 02:04:36;;;;;;;31.33;20.27;;;2.80;99.90;;;;;;5173510;27;20205;-52
2022/03/16 02:07:06;;;;;;;34.33;21.13;;;2.80;99.90;;;;;;5173299;27;20222;-51
2022/03/16 02:09:35;;;;;;;34.93;20.83;;;2.80;99.90;;;;;;5157038;27;20195;-52
2022/03/16 02:12:04;;;;;;;32.83;21.10;;;2.80;99.90;;;;;;5152180;27;20207;-50
2022/03/16 02:14:32;;;;;;;33.03;21.17;;;2.80;99.90;;;;;;5152732;27;20206;-51
2022/03/16 02:17:04;;;;;;;32.43;20.93;;;2.70;99.90;;;;;;5152561;27;20711;-51
2022/03/16 02:19:34;;;;;;;34.13;21.57;;;2.70;99.90;;;;;;5152680;27;20206;-51
2022/03/16 02:22:07;;;;;;;35.13;22.17;;;2.70;99.90;;;;;;5152464;27;20317;-52
2022/03/16 02:24:36;;;;;;;37.10;22.30;;;2.70;99.90;;;;;;5152565;27;20213;-51
2022/03/16 02:27:04;;;;;;;36.70;23.63;;;2.70;99.90;;;;;;5152706;27;20253;-52
2022/03/16 02:29:34;;;;;;;36.80;23.90;;;2.60;99.90;;;;;;5152709;27;20199;-51
2022/03/16 02:32:02;;;;;;;39.17;24.30;;;2.60;99.90;;;;;;5152417;27;20201;-51
2022/03/16 02:34:31;;;;;;;40.17;25.63;;;2.60;99.90;;;;;;5152634;27;20211;-50
2022/03/16 02:37:00;;;;;;;45.13;26.73;;;2.60;99.90;;;;;;5151889;27;20226;-52
2022/03/16 02:39:28;;;;;;;40.57;25.87;;;2.70;99.90;;;;;;5153000;27;20199;-52
2022/03/16 02:41:57;;;;;;;39.77;25.47;;;2.70;99.90;;;;;;5156312;27;20267;-52
2022/03/16 02:44:25;;;;;;;42.83;24.70;;;2.70;99.90;;;;;;5156677;27;20251;-52
2022/03/16 02:46:54;;;;;;;41.47;25.70;;;2.80;99.90;;;;;;5156559;27;20277;-51
2022/03/16 02:49:22;;;;;;;37.63;24.40;;;2.80;99.90;;;;;;5156466;27;20289;-51
2022/03/16 02:51:50;;;;;;;37.53;24.23;;;2.70;99.90;;;;;;5155995;27;20206;-52
2022/03/16 02:54:19;;;;;;;36.23;22.43;;;2.70;99.90;;;;;;5161400;27;20195;-52
2022/03/16 02:56:47;;;;;;;33.60;22.17;;;2.60;99.90;;;;;;5177351;27;20269;-51
2022/03/16 02:59:17;;;;;;;31.83;22.03;;;2.60;99.90;;;;;;5177504;27;20206;-52
2022/03/16 03:01:45;;;;;;;32.57;21.20;;;2.60;99.90;;;;;;5175956;27;20256;-51
2022/03/16 03:04:14;;;;;;;41.03;24.77;;;2.60;99.90;;;;;;5177295;27;20205;-51
2022/03/16 03:06:42;;;;;;;43.17;22.97;;;2.60;99.90;;;;;;5177360;27;20230;-51
2022/03/16 03:09:10;;;;;;;27.80;18.23;;;2.60;99.90;;;;;;5176972;27;20663;-51
2022/03/16 03:11:40;;;;;;;41.67;18.23;;;2.50;99.90;;;;;;5177124;27;20249;-51
2022/03/16 03:14:08;;;;;;;32.30;19.03;;;2.40;99.90;;;;;;5176743;27;20607;-51
2022/03/16 03:16:37;;;;;;;53.77;21.63;;;2.30;99.90;;;;;;5177137;27;20634;-51
2022/03/16 03:19:06;;;;;;;45.87;19.33;;;2.30;99.90;;;;;;5168601;27;20588;-51
2022/03/16 03:21:34;;;;;;;65.13;19.63;;;2.30;99.90;;;;;;5155763;27;20710;-52
2022/03/16 03:24:02;;;;;;;73.60;19.43;;;2.20;99.90;;;;;;5155458;27;20202;-51
2022/03/16 03:26:35;;;;;;;103.87;20.10;;;2.20;99.90;;;;;;5155635;27;20251;-51
2022/03/16 03:29:03;;;;;;;65.07;19.77;;;2.30;99.90;;;;;;5156042;27;20235;-52
2022/03/16 03:31:31;;;;;;;153.10;19.97;;;2.20;99.90;;;;;;5155487;27;20247;-52
2022/03/16 03:34:01;;;;;;;178.57;22.90;;;2.20;99.90;;;;;;5155496;27;20295;-51
2022/03/16 03:36:29;;;;;;;138.93;20.20;;;2.30;99.90;;;;;;5155799;27;20222;-51
2022/03/16 03:38:57;;;;;;;173.77;19.33;;;2.20;99.90;;;;;;5155467;27;20573;-51
2022/03/16 03:41:26;;;;;;;67.23;18.10;;;2.20;99.90;;;;;;5155771;27;20687;-51
2022/03/16 03:43:55;;;;;;;42.50;18.27;;;2.10;99.90;;;;;;5155092;27;20209;-51
2022/03/16 03:46:23;;;;;;;28.60;18.13;;;2.10;99.90;;;;;;5155574;27;20233;-52
2022/03/16 03:48:51;;;;;;;31.57;20.70;;;2.20;99.90;;;;;;5155557;27;20558;-51
2022/03/16 03:51:21;;;;;;;28.33;20.30;;;2.20;99.90;;;;;;5173777;27;20205;-51
2022/03/16 03:53:49;;;;;;;36.03;21.77;;;2.20;99.90;;;;;;5175564;27;20207;-51
2022/03/16 03:56:17;;;;;;;30.23;19.87;;;2.20;99.90;;;;;;5176550;27;20225;-52
2022/03/16 03:58:45;;;;;;;28.33;19.27;;;2.20;99.90;;;;;;5176247;27;20205;-51
2022/03/16 04:01:15;;;;;;;42.00;26.10;;;2.20;99.90;;;;;;5176565;27;20205;-51
2022/03/16 04:03:44;;;;;;;55.30;30.63;;;2.20;99.90;;;;;;5174340;27;20212;-51
2022/03/16 04:06:12;;;;;;;48.80;30.90;;;2.20;99.90;;;;;;5175874;27;20228;-51
2022/03/16 04:08:42;;;;;;;52.80;31.53;;;2.30;99.90;;;;;;5176466;27;20194;-51
2022/03/16 04:11:11;;;;;;;57.07;31.33;;;2.40;99.90;;;;;;5176044;27;20206;-51
2022/03/16 04:13:40;;;;;;;52.20;31.70;;;2.40;99.90;;;;;;5176033;27;20208;-51
2022/03/16 04:16:08;;;;;;;55.87;31.17;;;2.40;99.90;;;;;;5176494;27;20223;-52
2022/03/16 04:18:36;;;;;;;53.03;30.30;;;2.40;99.90;;;;;;5176031;27;20202;-51
2022/03/16 04:21:04;;;;;;;49.43;27.30;;;2.40;99.90;;;;;;5176318;27;20202;-51
2022/03/16 04:23:32;;;;;;;29.30;20.33;;;2.30;99.90;;;;;;5175270;27;20628;-51
2022/03/16 04:26:02;;;;;;;21.60;15.20;;;2.10;99.90;;;;;;5175827;27;20701;-51
2022/03/16 04:28:30;;;;;;;26.73;18.27;;;2.00;99.90;;;;;;5175687;27;20258;-51
2022/03/16 04:30:59;;;;;;;26.87;17.63;;;2.00;99.90;;;;;;5176033;27;20209;-51
2022/03/16 04:33:28;;;;;;;237.07;28.73;;;2.00;99.90;;;;;;5174780;27;20768;-52
2022/03/16 04:35:56;;;;;;;355.47;33.87;;;2.20;99.90;;;;;;5175745;27;20273;-51
2022/03/16 04:38:24;;;;;;;76.53;18.03;;;2.10;99.90;;;;;;5175577;27;20199;-52
2022/03/16 04:40:52;;;;;;;86.33;17.63;;;2.10;99.90;;;;;;5176044;27;20281;-50
2022/03/16 04:43:22;;;;;;;176.10;23.87;;;2.20;99.90;;;;;;5175025;27;20224;-51
2022/03/16 04:45:50;;;;;;;292.77;25.93;;;2.20;99.90;;;;;;5175439;27;20623;-52
2022/03/16 04:48:18;;;;;;;301.33;27.77;;;2.10;99.90;;;;;;5174085;27;20197;-51
2022/03/16 04:50:46;;;;;;;192.90;22.33;;;2.10;99.90;;;;;;5168591;27;20202;-51
2022/03/16 04:53:15;;;;;;;262.70;24.80;;;2.00;99.90;;;;;;5175057;27;20246;-51
2022/03/16 04:55:43;;;;;;;292.10;25.97;;;2.10;99.90;;;;;;5175357;27;20218;-51
2022/03/16 04:58:12;;;;;;;165.03;23.67;;;2.10;99.90;;;;;;5174244;27;20206;-51
2022/03/16 05:00:42;;;;;;;241.10;25.10;;;2.20;99.90;;;;;;5175345;27;20202;-51
2022/03/16 05:03:10;;;;;;;347.47;28.47;;;2.30;99.90;;;;;;5172571;27;20304;-51
2022/03/16 05:05:39;;;;;;;183.40;25.03;;;2.40;99.90;;;;;;5174839;27;20228;-51
2022/03/16 05:08:07;;;;;;;337.73;28.83;;;2.40;99.90;;;;;;5175122;27;20194;-52
2022/03/16 05:10:35;;;;;;;229.17;24.73;;;2.40;99.90;;;;;;5175240;27;20273;-51
2022/03/16 05:13:03;;;;;;;335.43;30.13;;;2.50;99.90;;;;;;5174174;27;20219;-51
2022/03/16 05:15:31;;;;;;;347.40;34.77;;;2.50;99.90;;;;;;5174820;27;20237;-52
2022/03/16 05:18:01;;;;;;;157.23;22.03;;;2.50;99.90;;;;;;5174756;27;20586;-51
2022/03/16 05:20:29;;;;;;;204.10;23.13;;;2.50;99.90;;;;;;5174702;27;20578;-52
2022/03/16 05:22:57;;;;;;;286.23;26.87;;;2.50;99.90;;;;;;5174138;27;20694;-51
2022/03/16 05:25:27;;;;;;;291.53;26.43;;;2.50;99.90;;;;;;5174976;27;20255;-51
2022/03/16 05:27:56;;;;;;;245.43;24.03;;;2.50;99.90;;;;;;5174513;27;20674;-51
2022/03/16 05:30:26;;;;;;;249.87;23.37;;;2.60;99.90;;;;;;5174480;27;20686;-51
2022/03/16 05:32:56;;;;;;;282.20;24.53;;;2.60;99.90;;;;;;5173548;27;20722;-51
2022/03/16 05:35:26;;;;;;;264.57;22.27;;;2.50;99.90;;;;;;5174783;27;20206;-51
2022/03/16 05:37:54;;;;;;;164.37;22.47;;;2.60;99.90;;;;;;5174696;27;20198;-51
2022/03/16 05:40:23;;;;;;;333.23;27.80;;;2.60;99.90;;;;;;5174418;27;20673;-51
2022/03/16 05:42:51;;;;;;;339.83;30.43;;;2.60;99.90;;;;;;5173905;27;20253;-51
2022/03/16 05:45:22;;;;;;;296.20;66.23;;;2.60;99.90;;;;;;5174326;27;20190;-51
2022/03/16 05:47:51;;;;;;;199.30;27.40;;;2.60;99.90;;;;;;5174295;27;20572;-51
2022/03/16 05:50:19;;;;;;;297.77;24.33;;;2.60;99.90;;;;;;5174081;27;20552;-51
2022/03/16 05:52:48;;;;;;;396.40;45.30;;;2.60;99.90;;;;;;5173796;27;20577;-51
2022/03/16 05:55:17;;;;;;;224.47;25.00;;;2.60;99.90;;;;;;5174171;27;20256;-52
2022/03/16 05:57:45;;;;;;;158.50;19.20;;;2.60;99.90;;;;;;5173651;27;20265;-51
2022/03/16 06:00:15;;;;;;;362.83;27.00;;;2.60;99.90;;;;;;5174453;27;20235;-51
2022/03/16 06:02:44;;;;;;;114.17;18.73;;;2.60;99.90;;;;;;5172928;27;20205;-51
2022/03/16 06:05:13;;;;;;;161.33;19.37;;;2.60;99.90;;;;;;5173898;27;20226;-51
2022/03/16 06:07:42;;;;;;;115.40;17.17;;;2.70;99.90;;;;;;5173933;27;20207;-51
2022/03/16 06:10:15;;;;;;;167.43;20.07;;;2.70;99.90;;;;;;5173967;27;20205;-51
2022/03/16 06:12:57;;;;;;;103.67;18.53;;;2.70;99.90;;;;;;5173555;27;20650;-51
2022/03/16 06:15:26;;;;;;;124.53;19.73;;;2.70;99.90;;;;;;5173684;27;20191;-51
2022/03/16 06:17:56;;;;;;;131.13;21.07;;;2.70;99.90;;;;;;5173665;27;20696;-51
2022/03/16 06:20:25;;;;;;;242.03;22.90;;;2.70;99.90;;;;;;5173381;27;20210;-51
2022/03/16 06:22:53;;;;;;;96.20;15.97;;;2.70;99.90;;;;;;5173216;27;20213;-51
2022/03/16 06:25:24;;;;;;;106.53;16.03;;;2.80;99.90;;;;;;5173898;27;20198;-51
2022/03/16 06:27:52;;;;;;;177.30;18.57;;;2.80;99.90;;;;;;5160356;27;20218;-52
2022/03/16 06:30:21;;;;;;;138.87;19.10;;;2.90;99.90;;;;;;5152872;27;20203;-51
2022/03/16 06:32:49;;;;;;;210.00;21.93;;;2.90;99.90;;;;;;5167549;27;20207;-52
2022/03/16 06:35:17;;;;;;;126.10;16.97;;;2.90;99.90;;;;;;5173566;27;20614;-52
2022/03/16 06:37:46;;;;;;;128.87;15.60;;;2.90;99.90;;;;;;5173337;27;20727;-52
2022/03/16 06:40:15;;;;;;;117.80;18.10;;;2.90;99.90;;;;;;5173613;27;20746;-51
2022/03/16 06:42:50;;;;;;;200.10;22.63;;;2.90;99.90;;;;;;5172875;27;20673;-51
2022/03/16 06:45:19;;;;;;;175.37;21.53;;;2.90;99.90;;;;;;5173390;27;20246;-50
2022/03/16 06:47:47;;;;;;;142.83;17.53;;;2.90;99.90;;;;;;5173803;27;20234;-51
2022/03/16 06:50:15;;;;;;;168.00;19.57;;;2.90;99.90;;;;;;5173344;27;20258;-52
2022/03/16 06:52:44;;;;;;;66.43;15.43;;;2.80;99.90;;;;;;5173220;27;20209;-52
2022/03/16 06:55:12;;;;;;;86.03;16.17;;;2.90;99.90;;;;;;5173272;27;20194;-51
2022/03/16 06:57:40;;;;;;;231.40;25.70;;;2.90;99.90;;;;;;5173398;27;20228;-51
2022/03/16 07:00:13;;;;;;;222.53;23.83;;;3.00;99.90;;;;;;5173455;27;20207;-51
2022/03/16 07:02:58;;;;;;;99.77;16.17;;;3.00;99.90;;;;;;5171634;27;20683;-51
2022/03/16 07:05:29;;;;;;;85.90;14.87;;;3.10;99.90;;;;;;5172739;27;20230;-51
2022/03/16 07:07:58;;;;;;;80.57;16.13;;;3.10;99.90;;;;;;5173328;27;20254;-52
2022/03/16 07:10:26;;;;;;;79.40;13.73;;;3.10;99.90;;;;;;5172825;27;20251;-51
2022/03/16 07:12:54;;;;;;;73.17;14.83;;;3.10;99.90;;;;;;5172793;27;20210;-51
2022/03/16 07:15:24;;;;;;;73.97;14.83;;;3.20;99.90;;;;;;5173565;27;20270;-51
2022/03/16 07:17:53;;;;;;;83.57;16.00;;;3.20;99.90;;;;;;5172947;27;20207;-51
2022/03/16 07:20:21;;;;;;;65.97;15.40;;;3.30;99.90;;;;;;5172999;27;20206;-51
2022/03/16 07:23:02;;;;;;;80.87;17.43;;;3.40;99.90;;;;;;5172288;27;20604;-51
2022/03/16 07:25:36;;;;;;;40.00;14.13;;;3.60;99.90;;;;;;5173654;27;20225;-51
2022/03/16 07:28:05;;;;;;;45.80;13.73;;;3.50;99.90;;;;;;5176608;27;20211;-51
2022/03/16 07:30:35;;;;;;;36.93;13.37;;;3.60;99.90;;;;;;5176980;27;20271;-52
2022/03/16 07:33:03;;;;;;;83.40;15.53;;;3.80;99.90;;;;;;5176898;27;20205;-51
2022/03/16 07:35:31;;;;;;;69.33;15.53;;;3.90;99.90;;;;;;5176555;27;20225;-52
2022/03/16 07:38:01;;;;;;;75.43;15.10;;;4.00;99.90;;;;;;5176821;27;20729;-51
2022/03/16 07:40:31;;;;;;;83.83;14.27;;;4.10;99.90;;;;;;5176577;27;20675;-51
2022/03/16 07:42:59;;;;;;;60.07;13.50;;;4.10;99.90;;;;;;5176144;27;20692;-51
2022/03/16 07:45:28;;;;;;;158.13;22.47;;;4.10;99.90;;;;;;5175962;27;21548;-51
2022/03/16 07:47:57;;;;;;;58.90;13.47;;;4.20;99.90;;;;;;5176893;27;20601;-51
2022/03/16 07:50:27;;;;;;;85.03;14.33;;;4.30;99.90;;;;;;5162701;27;20622;-51
2022/03/16 07:52:55;;;;;;;30.27;13.87;;;4.30;99.90;;;;;;5170144;27;20894;-51
2022/03/16 07:55:23;;;;;;;32.53;12.67;;;4.30;99.90;;;;;;5176133;27;20199;-51
2022/03/16 07:57:52;;;;;;;35.00;13.57;;;4.40;99.90;;;;;;5175754;27;20821;-51
2022/03/16 08:00:21;;;;;;;22.63;12.23;;;4.60;99.90;;;;;;5176114;27;20200;-51
2022/03/16 08:02:59;;;;;;;24.13;11.03;;;4.70;99.90;;;;;;5175388;27;20256;-51
2022/03/16 08:05:27;;;;;;;46.53;14.53;;;4.90;99.90;;;;;;5158522;27;20222;-51
2022/03/16 08:07:55;;;;;;;31.17;15.33;;;5.10;99.90;;;;;;5157226;27;20247;-51
2022/03/16 08:10:24;;;;;;;155.37;22.00;;;5.10;99.90;;;;;;5171107;27;20730;-52
2022/03/16 08:12:53;;;;;;;103.80;15.97;;;5.20;99.90;;;;;;5175439;27;20214;-51
2022/03/16 08:15:21;;;;;;;55.83;14.33;;;5.10;99.90;;;;;;5174834;27;20229;-51
2022/03/16 08:17:49;;;;;;;63.47;15.07;;;5.10;99.90;;;;;;5175882;27;20260;-51
2022/03/16 08:20:19;;;;;;;327.77;28.20;;;5.00;99.90;;;;;;5175581;27;20252;-51
2022/03/16 08:22:47;;;;;;;355.60;34.10;;;5.10;99.90;;;;;;5158611;27;20218;-51
2022/03/16 08:25:15;;;;;;;90.40;18.07;;;5.10;99.90;;;;;;5173666;27;20218;-51
2022/03/16 08:27:43;;;;;;;170.07;25.20;;;4.90;99.90;;;;;;5175556;27;20214;-51
2022/03/16 08:30:12;;;;;;;220.10;26.73;;;5.00;99.90;;;;;;5160929;27;20255;-50
2022/03/16 08:32:41;;;;;;;183.93;25.47;;;5.10;99.90;;;;;;5154222;27;20206;-51
2022/03/16 08:35:11;;;;;;;111.37;25.37;;;5.30;99.90;;;;;;5154543;27;20235;-51
2022/03/16 08:37:40;;;;;;;196.77;26.40;;;5.50;99.90;;;;;;5154419;27;20259;-51
2022/03/16 08:40:09;;;;;;;133.77;24.03;;;5.70;99.90;;;;;;5153532;27;20206;-51
2022/03/16 08:42:38;;;;;;;38.63;18.00;;;5.80;99.90;;;;;;5153649;27;20206;-51
2022/03/16 08:45:07;;;;;;;162.73;26.63;;;6.00;99.90;;;;;;5154550;27;20308;-51
2022/03/16 08:47:35;;;;;;;53.53;21.60;;;6.10;99.90;;;;;;5160698;27;20228;-50
2022/03/16 08:50:04;;;;;;;19.40;15.40;;;6.30;99.90;;;;;;5159189;27;20277;-50
2022/03/16 08:52:32;;;;;;;20.07;15.00;;;6.40;99.90;;;;;;5157769;27;20266;-51
2022/03/16 08:55:01;;;;;;;21.40;16.17;;;6.50;99.90;;;;;;5175290;27;20230;-50
2022/03/16 08:57:29;;;;;;;38.57;19.23;;;6.40;99.90;;;;;;5167179;27;20224;-51
2022/03/16 08:59:57;;;;;;;19.80;16.63;;;6.40;99.90;;;;;;5154478;27;20205;-51
2022/03/16 09:02:26;;;;;;;27.33;19.73;;;6.40;99.90;;;;;;5153908;27;20680;-51
2022/03/16 09:04:54;;;;;;;27.93;20.67;;;6.60;99.90;;;;;;5153670;27;20244;-50
2022/03/16 09:07:22;;;;;;;25.40;19.60;;;6.60;99.90;;;;;;5154045;27;20575;-51
2022/03/16 09:09:50;;;;;;;29.83;20.73;;;6.70;99.90;;;;;;5171345;27;20670;-52
2022/03/16 09:12:20;;;;;;;27.70;19.97;;;6.90;99.90;;;;;;5150577;27;20228;-52
2022/03/16 09:14:48;;;;;;;30.97;21.30;;;6.90;99.90;;;;;;5174724;27;20198;-51
2022/03/16 09:17:17;;;;;;;25.30;18.80;;;7.00;99.90;;;;;;5174794;27;20281;-51
2022/03/16 09:19:46;;;;;;;29.80;20.70;;;7.10;99.90;;;;;;5160710;27;20213;-52
2022/03/16 09:22:14;;;;;;;31.97;21.57;;;7.20;99.90;;;;;;5153029;27;20332;-52
2022/03/16 09:24:43;;;;;;;27.50;21.20;;;7.30;99.90;;;;;;5153361;27;20269;-51
2022/03/16 09:27:11;;;;;;;25.67;19.97;;;7.40;99.90;;;;;;5153147;27;20648;-51
2022/03/16 09:29:40;;;;;;;27.90;20.33;;;7.50;99.90;;;;;;5153399;27;20255;-52
2022/03/16 09:32:10;;;;;;;28.27;21.17;;;7.50;99.90;;;;;;5152874;27;20230;-52
2022/03/16 09:34:39;;;;;;;26.27;19.90;;;7.60;99.90;;;;;;5152841;27;20722;-51
2022/03/16 09:37:08;;;;;;;28.13;21.03;;;7.60;99.90;;;;;;5153086;27;20229;-51
2022/03/16 09:39:38;;;;;;;27.30;20.63;;;7.70;99.90;;;;;;5153281;27;20206;-52
2022/03/16 09:42:08;;;;;;;31.83;22.47;;;7.80;99.90;;;;;;5152760;27;20251;-51
2022/03/16 09:44:37;;;;;;;30.73;22.73;;;7.80;99.90;;;;;;5153021;27;20195;-51
2022/03/16 09:47:09;;;;;;;29.97;22.57;;;8.00;99.90;;;;;;5153346;27;20230;-51
2022/03/16 09:49:39;;;;;;;31.97;22.40;;;8.00;99.90;;;;;;5151877;27;20682;-52
2022/03/16 09:52:09;;;;;;;27.07;20.40;;;7.90;99.90;;;;;;5153085;27;20206;-51
2022/03/16 09:54:38;;;;;;;33.50;24.03;;;8.00;99.90;;;;;;5173871;27;20212;-52
2022/03/16 09:57:06;;;;;;;31.60;22.10;;;8.00;99.90;;;;;;5173962;27;20214;-51
2022/03/16 09:59:34;;;;;;;30.97;23.07;;;8.10;99.90;;;;;;5173883;27;20249;-57
2022/03/16 10:02:07;;;;;;;30.63;23.53;;;8.20;99.90;;;;;;5173253;27;20213;-51
2022/03/16 10:04:36;;;;;;;32.70;23.90;;;8.30;99.90;;;;;;5173865;27;20232;-52
2022/03/16 10:07:06;;;;;;;31.70;23.63;;;8.40;99.90;;;;;;5173535;27;20221;-51
2022/03/16 10:15:12;;;;;;;35.33;25.60;;;8.50;99.90;;;;;;5152928;27;20250;-51
2022/03/16 10:17:45;;;;;;;35.70;25.47;;;8.60;99.90;;;;;;5152639;27;20205;-52
2022/03/16 10:20:27;;;;;;;32.97;24.60;;;8.80;99.90;;;;;;5153360;27;20202;-50
2022/03/16 10:23:01;;;;;;;34.87;25.03;;;8.90;99.90;;;;;;5152836;27;20194;-50
2022/03/16 10:25:31;;;;;;;34.33;25.57;;;9.00;99.90;;;;;;5152185;27;20230;-52
2022/03/16 10:28:13;;;;;;;35.33;24.47;;;9.20;99.90;;;;;;5152252;27;20209;-52
2022/03/16 10:30:55;;;;;;;36.10;25.73;;;9.30;99.90;;;;;;5168044;27;20226;-51
2022/03/16 10:33:29;;;;;;;35.37;25.33;;;9.30;99.90;;;;;;5150374;27;20677;-52
2022/03/16 10:36:01;;;;;;;35.70;24.87;;;9.40;99.90;;;;;;5166416;27;20225;-52
2022/03/16 10:38:31;;;;;;;32.83;24.77;;;9.40;99.90;;;;;;5173439;27;20189;-52
2022/03/16 10:41:12;;;;;;;32.23;23.73;;;9.40;99.90;;;;;;5173172;27;20208;-52
2022/03/16 10:46:39;;;;;;;33.57;25.17;;;9.50;99.90;;;;;;5173063;27;20252;-52
2022/03/16 10:49:12;;;;;;;33.27;23.80;;;9.70;99.90;;;;;;5172962;27;20207;-52
2022/03/16 10:51:41;;;;;;;30.50;22.87;;;9.60;99.90;;;;;;5172882;27;20206;-52
2022/03/16 10:54:26;;;;;;;28.17;19.40;;;9.70;99.90;;;;;;5172883;27;20195;-52
2022/03/16 10:56:56;;;;;;;27.63;20.73;;;9.80;99.90;;;;;;5173050;27;20221;-52
2022/03/16 10:59:29;;;;;;;30.77;21.17;;;9.90;99.90;;;;;;5172913;27;20725;-52
2022/03/16 11:02:05;;;;;;;30.70;21.70;;;9.90;99.90;;;;;;5175522;27;20201;-52
2022/03/16 11:04:36;;;;;;;29.90;22.20;;;9.90;99.90;;;;;;5176415;27;20194;-52
2022/03/16 11:07:05;;;;;;;31.60;22.53;;;10.00;99.90;;;;;;5176881;27;20229;-51
2022/03/16 11:09:35;;;;;;;31.27;22.60;;;10.00;99.90;;;;;;5177109;27;20199;-51
2022/03/16 11:14:58;;;;;;;33.63;23.60;;;10.00;99.90;;;;;;5155743;27;20197;-51
2022/03/16 11:17:28;;;;;;;32.10;21.43;;;10.10;99.90;;;;;;5155669;27;20229;-51
2022/03/16 11:20:00;;;;;;;33.37;23.77;;;10.20;99.90;;;;;;5155733;27;20206;-51
2022/03/16 11:22:33;;;;;;;31.23;23.67;;;10.20;99.90;;;;;;5155526;27;20213;-52
2022/03/16 11:25:06;;;;;;;35.73;23.17;;;10.30;99.90;;;;;;5156361;27;20243;-52
2022/03/16 11:27:45;;;;;;;34.17;23.70;;;10.40;99.90;;;;;;5155284;27;20230;-51
2022/03/16 11:30:25;;;;;;;35.40;24.57;;;10.50;99.90;;;;;;5155652;27;20190;-51
2022/03/16 11:32:59;;;;;;;30.87;23.27;;;10.60;99.90;;;;;;5154939;27;20663;-51
2022/03/16 11:35:34;;;;;;;33.10;24.10;;;10.70;99.90;;;;;;5155565;27;20733;-51
2022/03/16 11:38:09;;;;;;;32.60;21.90;;;10.80;99.90;;;;;;5155567;27;20201;-51
2022/03/16 11:40:40;;;;;;;31.17;22.17;;;10.90;99.90;;;;;;5156007;27;20277;-52
2022/03/16 11:43:16;;;;;;;33.03;23.30;;;11.00;99.90;;;;;;5153999;27;20294;-51
2022/03/16 11:45:50;;;;;;;35.57;24.83;;;11.20;99.90;;;;;;5155570;27;20264;-52
2022/03/16 11:48:48;;;;;;;33.57;24.53;;;11.20;99.90;;;;;;5155507;27;20205;-52
2022/03/16 11:51:24;;;;;;;30.87;23.33;;;11.40;99.90;;;;;;5155328;27;20582;-52
2022/03/16 11:54:09;;;;;;;31.50;23.43;;;11.50;99.90;;;;;;5155062;27;20671;-51
2022/03/16 11:56:56;;;;;;;32.60;24.73;;;11.50;99.90;;;;;;5155313;27;20222;-52
2022/03/16 11:59:44;;;;;;;33.33;23.43;;;11.50;99.90;;;;;;5154972;27;20251;-52
2022/03/16 12:02:23;;;;;;;33.80;24.03;;;11.40;99.90;;;;;;5154616;27;20202;-53
2022/03/16 12:04:58;;;;;;;31.70;26.25;;;11.60;99.90;;;;;;5153926;27;20463;-52
2022/03/16 12:07:30;;;;;;;33.80;24.40;;;11.70;99.90;;;;;;5159110;27;20213;-51
2022/03/16 12:10:03;;;;;;;31.40;24.67;;;11.70;99.90;;;;;;5175847;27;20740;-52
2022/03/16 12:15:23;;;;;;;31.80;23.60;;;11.60;99.90;;;;;;5175413;27;20209;-52
2022/03/16 12:18:34;;;;;;;33.27;24.53;;;11.60;99.90;;;;;;5175537;27;20762;-52
2022/03/16 12:21:10;;;;;;;31.27;23.67;;;11.50;99.90;;;;;;5164030;27;20239;-52
2022/03/16 12:23:54;;;;;;;32.30;24.23;;;11.60;99.90;;;;;;5166881;27;20722;-51
2022/03/16 12:26:25;;;;;;;33.15;26.35;;;11.70;99.90;;;;;;5174687;27;20986;-52
2022/03/16 12:29:03;;;;;;;30.33;23.03;;;11.90;99.90;;;;;;5172060;27;20210;-51
2022/03/16 12:31:31;;;;;;;27.33;21.20;;;11.70;99.90;;;;;;5154508;27;20231;-52
2022/03/16 12:34:00;;;;;;;28.53;21.67;;;11.70;99.90;;;;;;5154084;27;20626;-52
2022/03/16 12:36:30;;;;;;;29.77;22.73;;;11.60;99.90;;;;;;5152217;27;20222;-51
2022/03/16 12:39:01;;;;;;;29.87;22.73;;;11.70;99.90;;;;;;5154727;27;20206;-51
2022/03/16 12:44:17;;;;;;;29.17;22.10;;;11.90;99.90;;;;;;5153953;27;20194;-51
2022/03/16 12:47:01;;;;;;;29.73;24.20;;;11.80;99.90;;;;;;5170441;27;20548;-52
2022/03/16 12:49:30;;;;;;;29.77;22.03;;;11.90;99.90;;;;;;5175257;27;20189;-51
2022/03/16 12:52:01;;;;;;;27.17;21.63;;;11.90;99.90;;;;;;5174779;27;20256;-51
2022/03/16 12:54:32;;;;;;;28.10;21.57;;;11.90;99.90;;;;;;5174978;27;20332;-51
2022/03/16 12:57:05;;;;;;;28.70;21.93;;;11.80;99.90;;;;;;5175316;27;20221;-52
2022/03/16 12:59:35;;;;;;;27.90;21.13;;;11.80;99.90;;;;;;5174801;27;20193;-51
2022/03/16 13:02:06;;;;;;;27.23;20.27;;;12.00;99.90;;;;;;5174851;27;20254;-51
2022/03/16 13:04:35;;;;;;;26.87;21.43;;;11.90;99.90;;;;;;5174855;27;20242;-51